Time;durP1;ratioP1;P1;durP2;ratioP2;P2;SDS_P1;SDS_P2;PMS_P1;PMS_P2;Temp;Humidity;BMP_temperature;BMP_pressure;BME280_temperature;BME280_humidity;BME280_pressure;Samples;Min_cycle;Max_cycle;Signal;HPM_P1;HPM_P2
2021/09/29 00:03:32;;;;;;;27.53;18.83;;;;;;;14.24;100.00;95201.88;10294488;28;20053;-72
2021/09/29 00:08:32;;;;;;;29.60;17.75;;;;;;;14.30;100.00;95191.81;10278634;28;20282;-65
2021/09/29 00:13:33;;;;;;;21.70;14.85;;;;;;;14.30;100.00;95189.94;10278154;28;20475;-72
2021/09/29 00:18:34;;;;;;;26.45;16.33;;;;;;;14.12;100.00;95206.84;10294158;28;20121;-75
2021/09/29 00:23:34;;;;;;;20.77;13.57;;;;;;;13.99;100.00;95214.50;10278106;28;20026;-70
2021/09/29 00:28:35;;;;;;;21.77;14.05;;;;;;;13.99;100.00;95205.63;10278797;28;20031;-67
2021/09/29 00:33:36;;;;;;;22.88;15.00;;;;;;;14.08;100.00;95203.09;10277463;28;20030;-66
2021/09/29 00:38:37;;;;;;;18.80;12.63;;;;;;;14.11;100.00;95200.66;10277783;28;20085;-70
2021/09/29 00:43:38;;;;;;;19.90;11.50;;;;;;;14.02;100.00;95200.47;10276902;28;20026;-67
2021/09/29 00:48:38;;;;;;;18.70;10.13;;;;;;;13.96;100.00;95200.78;10275729;28;20271;-67
2021/09/29 00:53:39;;;;;;;21.30;12.90;;;;;;;13.97;100.00;95202.41;10276582;28;20022;-75
2021/09/29 00:58:39;;;;;;;18.67;11.63;;;;;;;13.95;100.00;95199.16;10276625;28;20274;-69
2021/09/29 01:03:42;;;;;;;12.67;8.87;;;;;;;14.01;100.00;95198.84;10275723;28;20527;-66
2021/09/29 01:08:50;;;;;;;10.00;7.15;;;;;;;13.88;100.00;95190.56;10253000;28;20270;-71
2021/09/29 01:13:55;;;;;;;;;;;;;;;13.96;100.00;95196.16;10268282;28;20098;-71
2021/09/29 01:18:57;;;;;;;12.40;6.45;;;;;;;13.66;100.00;95189.94;10251709;28;19914;-69
2021/09/29 01:24:05;;;;;;;11.20;7.10;;;;;;;13.61;100.00;95187.25;10264217;28;20023;-71
2021/09/29 01:29:09;;;;;;;10.18;7.10;;;;;;;13.69;100.00;95191.28;10275690;28;20046;-70
2021/09/29 01:34:11;;;;;;;11.95;7.40;;;;;;;13.84;100.00;95204.66;10243530;28;20030;-71
2021/09/29 01:39:15;;;;;;;11.18;7.75;;;;;;;13.84;100.00;95198.44;10261555;28;20192;-72
2021/09/29 01:44:16;;;;;;;12.82;8.00;;;;;;;13.81;100.00;95205.22;10235375;28;20404;-66
2021/09/29 01:49:27;;;;;;;10.43;7.37;;;;;;;13.72;100.00;95211.50;10235372;29;20033;-70
2021/09/29 01:54:30;;;;;;;9.02;6.93;;;;;;;13.69;100.00;95196.66;10254135;28;20270;-67
2021/09/29 01:59:31;;;;;;;9.73;7.85;;;;;;;13.63;100.00;95200.47;10261783;28;20027;-74
2021/09/29 02:04:31;;;;;;;12.90;8.23;;;;;;;13.55;100.00;95199.19;10282122;28;20051;-69
2021/09/29 02:09:32;;;;;;;10.75;7.13;;;;;;;13.53;100.00;95197.84;10261419;28;20476;-74
2021/09/29 02:14:32;;;;;;;8.83;6.97;;;;;;;13.42;100.00;95206.00;10259188;28;20058;-72
2021/09/29 02:19:33;;;;;;;11.18;7.75;;;;;;;13.32;100.00;95214.13;10257576;28;20771;-74
2021/09/29 02:24:33;;;;;;;11.07;7.28;;;;;;;13.30;100.00;95216.31;10241946;28;20028;-67
2021/09/29 02:29:33;;;;;;;9.93;7.82;;;;;;;13.31;100.00;95218.75;10242301;28;20071;-71
2021/09/29 02:34:34;;;;;;;10.25;7.63;;;;;;;13.33;100.00;95221.97;10241180;29;20024;-71
2021/09/29 02:39:35;;;;;;;12.13;7.65;;;;;;;13.31;100.00;95216.03;10241448;29;20078;-68
2021/09/29 02:44:35;;;;;;;14.18;8.82;;;;;;;13.28;100.00;95226.56;10241440;29;20027;-67
2021/09/29 02:49:36;;;;;;;11.82;8.13;;;;;;;13.22;100.00;95225.81;10240939;29;20035;-67
2021/09/29 02:54:36;;;;;;;14.52;7.60;;;;;;;13.24;100.00;95226.34;10240667;28;20031;-67
2021/09/29 02:59:37;;;;;;;12.65;8.27;;;;;;;13.21;100.00;95229.56;10242462;28;20494;-69
2021/09/29 03:04:37;;;;;;;14.53;7.37;;;;;;;13.14;100.00;95229.06;10239949;29;20510;-75
2021/09/29 03:09:38;;;;;;;13.30;7.43;;;;;;;13.06;100.00;95227.78;10269672;28;20292;-67
2021/09/29 03:14:38;;;;;;;11.13;8.27;;;;;;;13.12;100.00;95226.66;10279320;28;20029;-69
2021/09/29 03:19:39;;;;;;;9.80;7.80;;;;;;;13.05;100.00;95223.44;10262596;28;20027;-64
2021/09/29 03:24:40;;;;;;;9.82;7.68;;;;;;;13.07;100.00;95218.56;10255605;28;20293;-67
2021/09/29 03:29:40;;;;;;;10.75;7.93;;;;;;;13.13;100.00;95224.75;10255127;28;20114;-69
2021/09/29 03:34:40;;;;;;;14.50;7.93;;;;;;;13.01;100.00;95230.47;10255475;28;20339;-74
2021/09/29 03:39:41;;;;;;;12.88;8.27;;;;;;;12.86;100.00;95217.06;10255405;28;20035;-72
2021/09/29 03:44:41;;;;;;;11.20;8.30;;;;;;;12.70;100.00;95208.19;10277046;28;20027;-73
2021/09/29 03:49:42;;;;;;;13.00;8.77;;;;;;;12.77;100.00;95206.03;10278116;28;20026;-64
2021/09/29 03:54:42;;;;;;;11.57;8.68;;;;;;;12.83;100.00;95208.41;10277862;28;20477;-66
2021/09/29 03:59:43;;;;;;;11.77;8.30;;;;;;;12.77;100.00;95214.13;10260243;28;20058;-70
2021/09/29 04:04:43;;;;;;;12.43;8.88;;;;;;;12.79;100.00;95201.16;10238672;28;20313;-70
2021/09/29 04:09:46;;;;;;;14.90;9.37;;;;;;;12.79;100.00;95206.56;10253778;28;20023;-71
2021/09/29 04:14:48;;;;;;;20.45;9.00;;;;;;;12.80;100.00;95213.56;10253289;28;20795;-71
2021/09/29 04:19:48;;;;;;;13.23;8.85;;;;;;;12.71;100.00;95226.81;10253314;28;20031;-68
2021/09/29 04:24:49;;;;;;;13.07;8.95;;;;;;;12.64;100.00;95226.28;10272119;28;20027;-71
2021/09/29 04:29:50;;;;;;;16.85;9.25;;;;;;;12.54;100.00;95235.19;10270326;28;20028;-68
2021/09/29 04:34:50;;;;;;;18.48;10.15;;;;;;;12.50;100.00;95234.13;10196531;29;20015;-68
2021/09/29 04:39:51;;;;;;;16.33;10.48;;;;;;;12.52;100.00;95237.38;10223083;29;20030;-68
2021/09/29 04:44:51;;;;;;;14.23;10.30;;;;;;;12.45;100.00;95244.94;10219999;29;20031;-74
2021/09/29 04:49:52;;;;;;;25.25;11.93;;;;;;;12.41;100.00;95236.56;10204362;29;20049;-75
2021/09/29 04:54:53;;;;;;;18.38;9.93;;;;;;;12.41;100.00;95241.97;10236063;29;20023;-70
2021/09/29 04:59:53;;;;;;;20.15;11.15;;;;;;;12.35;100.00;95243.06;10261919;28;20079;-70
2021/09/29 05:04:53;;;;;;;14.97;10.67;;;;;;;12.33;100.00;95241.72;10273879;28;20477;-69
2021/09/29 05:09:55;;;;;;;15.63;10.20;;;;;;;12.51;100.00;95253.81;10272270;28;20274;-73
2021/09/29 05:14:56;;;;;;;17.92;11.48;;;;;;;12.58;100.00;95251.66;10274029;28;20166;-71
2021/09/29 05:19:56;;;;;;;16.60;9.73;;;;;;;12.67;100.00;95252.72;10261629;28;20183;-68
2021/09/29 05:24:57;;;;;;;18.60;9.63;;;;;;;12.71;100.00;95253.78;10234641;28;20501;-72
2021/09/29 05:29:58;;;;;;;15.43;10.07;;;;;;;12.76;100.00;95264.53;10260014;28;20608;-70
2021/09/29 05:34:58;;;;;;;13.13;9.68;;;;;;;12.85;100.00;95274.78;10266657;28;20034;-72
2021/09/29 05:39:59;;;;;;;19.53;9.53;;;;;;;12.91;100.00;95273.69;10244927;29;20038;-71
2021/09/29 05:44:59;;;;;;;14.43;9.57;;;;;;;12.92;100.00;95270.72;10258361;28;20290;-68
2021/09/29 05:50:00;;;;;;;13.60;9.00;;;;;;;12.93;100.00;95282.31;10260973;28;20860;-70
2021/09/29 05:55:00;;;;;;;15.27;10.85;;;;;;;12.91;100.00;95277.19;10282425;28;20604;-71
2021/09/29 06:00:01;;;;;;;15.47;9.67;;;;;;;12.80;100.00;95286.41;10238148;28;20043;-69
2021/09/29 06:05:01;;;;;;;12.85;8.68;;;;;;;12.82;100.00;95295.84;10242012;28;20303;-65
2021/09/29 06:10:03;;;;;;;10.05;7.75;;;;;;;12.93;100.00;95290.41;10225250;28;20035;-70
2021/09/29 06:15:04;;;;;;;18.65;7.57;;;;;;;12.93;100.00;95303.91;10229325;28;20027;-74
2021/09/29 06:20:07;;;;;;;10.38;7.07;;;;;;;13.01;100.00;95307.94;10216459;28;20131;-70
2021/09/29 06:25:08;;;;;;;9.35;7.53;;;;;;;13.01;100.00;95306.03;10199513;29;20494;-72
2021/09/29 06:30:09;;;;;;;10.73;7.38;;;;;;;12.97;100.00;95307.66;10200377;29;20086;-71
2021/09/29 06:35:10;;;;;;;9.55;7.03;;;;;;;13.04;100.00;95308.19;10199820;29;20034;-72
2021/09/29 06:40:16;;;;;;;14.57;8.05;;;;;;;13.15;100.00;95312.47;10203024;29;20866;-70
2021/09/29 06:45:17;;;;;;;19.50;7.70;;;;;;;13.19;100.00;95315.44;10247380;28;20023;-71
2021/09/29 06:50:20;;;;;;;8.93;7.03;;;;;;;13.24;100.00;95317.28;10280609;28;20551;-68
2021/09/29 06:55:21;;;;;;;12.27;7.20;;;;;;;13.37;100.00;95324.84;10280301;28;20461;-68
2021/09/29 07:00:23;;;;;;;9.82;7.25;;;;;;;13.34;100.00;95320.75;10244111;28;20027;-69
2021/09/29 07:05:24;;;;;;;14.02;8.27;;;;;;;13.33;100.00;95323.75;10297330;23;20560;-71
2021/09/29 07:10:25;;;;;;;14.10;9.23;;;;;;;13.36;100.00;95330.53;10281082;28;20960;-70
2021/09/29 07:15:26;;;;;;;15.70;7.70;;;;;;;13.53;100.00;95328.28;10264507;28;20050;-71
2021/09/29 07:20:28;;;;;;;10.88;8.73;;;;;;;13.50;100.00;95321.53;10278797;28;20146;-76
2021/09/29 07:25:30;;;;;;;13.88;8.70;;;;;;;13.54;100.00;95331.81;10278844;28;20509;-70
2021/09/29 07:30:31;;;;;;;14.77;9.57;;;;;;;13.60;100.00;95328.78;10279117;28;20109;-74
2021/09/29 07:35:33;;;;;;;13.38;9.38;;;;;;;13.79;100.00;95338.97;10278585;28;20034;-70
2021/09/29 07:40:34;;;;;;;13.05;9.40;;;;;;;13.96;100.00;95342.09;10278436;28;20030;-70
2021/09/29 07:45:35;;;;;;;15.48;9.27;;;;;;;14.03;100.00;95344.50;10263174;28;20038;-74
2021/09/29 07:50:35;;;;;;;15.60;9.52;;;;;;;14.18;100.00;95347.09;10293994;28;20039;-68
2021/09/29 07:55:36;;;;;;;12.43;8.77;;;;;;;14.22;100.00;95354.63;10293339;28;20033;-66
2021/09/29 08:00:36;;;;;;;13.10;9.25;;;;;;;14.19;100.00;95354.13;10261891;28;20282;-67
2021/09/29 08:05:37;;;;;;;14.27;8.95;;;;;;;14.14;100.00;95364.97;10277360;28;21092;-68
2021/09/29 08:10:37;;;;;;;12.88;9.65;;;;;;;14.16;100.00;95361.97;10243580;28;20039;-71
2021/09/29 08:15:37;;;;;;;12.53;8.60;;;;;;;14.26;100.00;95359.22;10239131;28;20106;-72
2021/09/29 08:20:39;;;;;;;13.87;9.40;;;;;;;14.36;100.00;95361.03;10221508;28;20270;-75
2021/09/29 08:35:59;;;;;;;13.52;8.98;;;;;;;14.71;100.00;95353.78;10277636;28;20265;-72
2021/09/29 09:18:21;;;;;;;11.80;8.40;;;;;;;15.53;100.00;95373.78;10276148;28;20026;-67
2021/09/29 09:23:40;;;;;;;15.05;9.55;;;;;;;15.42;100.00;95370.41;10290853;28;20061;-71
2021/09/29 09:28:40;;;;;;;;;;;;;;;15.29;100.00;95373.78;10260537;28;20149;-71
2021/09/29 09:33:53;;;;;;;15.45;10.15;;;;;;;15.11;100.00;95370.72;10285797;28;20405;-70
2021/09/29 09:38:54;;;;;;;15.55;9.57;;;;;;;15.10;100.00;95376.41;10273844;28;20043;-71
2021/09/29 09:43:57;;;;;;;14.65;9.27;;;;;;;15.32;100.00;95382.16;10235192;28;20094;-69
2021/09/29 09:49:02;;;;;;;23.00;8.80;;;;;;;15.46;100.00;95371.44;10250658;28;20544;-67
2021/09/29 09:54:03;;;;;;;14.52;9.00;;;;;;;15.64;100.00;95382.59;10261081;28;20062;-70
2021/09/29 09:59:07;;;;;;;14.37;7.77;;;;;;;15.56;100.00;95381.34;10290411;28;20125;-67
2021/09/29 10:04:14;;;;;;;19.10;9.40;;;;;;;15.35;100.00;95383.47;10274341;28;20381;-71
2021/09/29 10:09:39;;;;;;;17.75;9.57;;;;;;;15.07;100.00;95385.91;10269754;28;20027;-72
2021/09/29 10:36:59;;;;;;;14.93;8.20;;;;;;;15.17;100.00;95383.09;10251625;28;20505;-70
2021/09/29 10:41:49;;;;;;;13.95;8.77;;;;;;;15.03;100.00;95377.56;10281432;28;20432;-70
2021/09/29 10:52:25;;;;;;;16.52;9.48;;;;;;;15.02;100.00;95375.94;10295002;28;20032;-73
2021/09/29 11:29:48;;;;;;;19.20;11.27;;;;;;;14.96;100.00;95360.03;10280277;28;20027;-70
2021/09/29 11:34:49;;;;;;;17.02;10.25;;;;;;;15.13;100.00;95363.09;10239498;28;20030;-68
2021/09/29 12:11:49;;;;;;;36.88;15.48;;;;;;;14.67;100.00;95353.50;10279283;28;20075;-71
2021/09/29 12:16:50;;;;;;;25.52;14.20;;;;;;;14.72;100.00;95349.97;10277609;28;20109;-72
2021/09/29 12:22:02;;;;;;;27.88;15.35;;;;;;;15.18;100.00;95354.94;10277353;28;20027;-72
2021/09/29 12:27:04;;;;;;;24.10;14.35;;;;;;;15.40;100.00;95352.81;10277702;28;20027;-69
2021/09/29 12:32:48;;;;;;;33.35;17.63;;;;;;;15.50;100.00;95350.81;10276909;28;20030;-69
2021/09/29 12:37:35;;;;;;;28.95;15.93;;;;;;;15.51;100.00;95352.41;10276985;28;20104;-70
2021/09/29 12:42:40;;;;;;;32.17;17.98;;;;;;;15.23;100.00;95345.94;10278904;28;20033;-70
2021/09/29 12:47:45;;;;;;;28.42;16.73;;;;;;;14.79;100.00;95341.50;10260313;28;20382;-69
2021/09/29 12:52:50;;;;;;;29.30;16.15;;;;;;;14.82;100.00;95344.47;10271831;28;20106;-71
2021/09/29 12:57:51;;;;;;;29.83;16.67;;;;;;;14.82;100.00;95344.47;10256582;28;20190;-68
2021/09/29 13:02:51;;;;;;;31.10;16.73;;;;;;;14.70;100.00;95346.72;10254921;28;20346;-73
2021/09/29 13:07:52;;;;;;;28.42;16.25;;;;;;;14.35;100.00;95345.91;10261658;28;20282;-67
2021/09/29 13:12:52;;;;;;;25.77;15.80;;;;;;;14.31;100.00;95336.75;10242868;28;20031;-70
2021/09/29 13:17:55;;;;;;;26.40;16.30;;;;;;;14.49;100.00;95338.75;10272345;28;20034;-73
2021/09/29 13:23:06;;;;;;;30.63;15.48;;;;;;;14.45;100.00;95334.19;10280139;28;20042;-72
2021/09/29 13:38:46;;;;;;;23.60;14.77;;;;;;;15.10;100.00;95338.50;10239528;28;20023;-74
2021/09/29 13:43:46;;;;;;;26.98;17.35;;;;;;;15.07;100.00;95330.97;10280185;28;20027;-72
2021/09/29 13:48:48;;;;;;;31.50;18.13;;;;;;;15.13;100.00;95327.91;10271474;28;20030;-67
2021/09/29 13:53:48;;;;;;;25.20;16.02;;;;;;;15.17;100.00;95333.56;10261367;28;20019;-71
2021/09/29 13:59:16;;;;;;;26.13;15.05;;;;;;;15.10;100.00;95336.63;10282328;28;20023;-71
2021/09/29 14:30:40;;;;;;;21.35;13.25;;;;;;;15.13;100.00;95343.38;10242374;29;20038;-69
2021/09/29 14:35:40;;;;;;;22.23;13.85;;;;;;;14.90;100.00;95347.63;10241382;29;20078;-71
2021/09/29 14:40:41;;;;;;;22.33;13.57;;;;;;;14.77;100.00;95349.91;10241387;29;20089;-73
2021/09/29 14:45:43;;;;;;;24.05;12.80;;;;;;;14.68;100.00;95346.22;10234037;29;20294;-71
2021/09/29 14:50:49;;;;;;;24.67;14.00;;;;;;;14.50;100.00;95351.19;10200134;29;20537;-70
2021/09/29 14:55:49;;;;;;;27.45;14.80;;;;;;;14.30;100.00;95356.75;10211552;29;20032;-69
2021/09/29 15:00:49;;;;;;;29.17;16.30;;;;;;;14.34;100.00;95353.22;10195614;29;20043;-70
2021/09/29 15:05:51;;;;;;;24.63;13.87;;;;;;;14.30;100.00;95351.34;10173960;29;20405;-71
2021/09/29 15:10:52;;;;;;;28.85;15.80;;;;;;;14.27;100.00;95362.72;10161819;29;20718;-76
2021/09/29 15:16:06;;;;;;;35.63;16.98;;;;;;;14.29;100.00;95360.53;10176590;29;20028;-71
2021/09/29 15:21:32;;;;;;;24.55;16.27;;;;;;;14.30;100.00;95359.44;10160642;29;20060;-74
2021/09/29 15:26:49;;;;;;;30.42;15.93;;;;;;;14.36;100.00;95366.47;10200313;29;20038;-66
2021/09/29 16:18:49;;;;;;;39.38;21.55;;;;;;;12.87;100.00;95402.91;10198687;29;20068;-70
2021/09/29 16:34:19;;;;;;;34.03;18.38;;;;;;;12.85;100.00;95415.88;10198847;29;20035;-71
2021/09/29 16:39:20;;;;;;;29.07;16.83;;;;;;;12.72;100.00;95421.81;10197676;29;20039;-75
2021/09/29 16:44:20;;;;;;;30.45;16.48;;;;;;;12.73;100.00;95421.53;10201244;29;20204;-69
2021/09/29 16:49:25;;;;;;;26.42;14.52;;;;;;;12.75;100.00;95424.75;10198578;29;20099;-72
2021/09/29 16:54:25;;;;;;;27.58;14.73;;;;;;;12.82;100.00;95433.41;10198764;29;20513;-69
2021/09/29 17:04:27;;;;;;;23.00;13.67;;;;;;;12.91;100.00;95430.97;10197113;29;20020;-72
2021/09/29 17:09:27;;;;;;;27.15;14.40;;;;;;;12.91;100.00;95432.88;10196879;29;20657;-69
2021/09/29 17:14:28;;;;;;;19.48;11.95;;;;;;;12.93;100.00;95428.78;10196222;29;20028;-72
2021/09/29 17:19:28;;;;;;;18.10;10.07;;;;;;;13.00;100.00;95439.31;10175566;29;20095;-69
2021/09/29 17:24:31;;;;;;;15.82;9.55;;;;;;;13.05;100.00;95436.63;10157167;29;20032;-73
2021/09/29 17:29:31;;;;;;;15.10;9.90;;;;;;;12.95;100.00;95431.25;10156446;29;20367;-69
2021/09/29 17:40:31;;;;;;;15.45;9.98;;;;;;;12.96;100.00;95439.06;10171778;29;21239;-73
2021/09/29 17:56:08;;;;;;;24.35;13.38;;;;;;;13.08;100.00;95441.47;10195681;29;20065;-73
2021/09/29 18:01:10;;;;;;;23.93;15.40;;;;;;;13.02;100.00;95447.97;10203573;29;20162;-76
2021/09/29 18:06:16;;;;;;;24.60;15.80;;;;;;;12.92;100.00;95450.66;10178409;29;20292;-68
2021/09/29 18:11:16;;;;;;;27.08;16.33;;;;;;;13.05;100.00;95458.22;10156175;29;20028;-69
2021/09/29 18:16:17;;;;;;;28.92;16.75;;;;;;;12.83;100.00;95461.19;10171826;29;20413;-69
2021/09/29 18:21:17;;;;;;;31.48;17.77;;;;;;;12.75;100.00;95470.59;10155859;29;20048;-69
2021/09/29 18:26:18;;;;;;;27.47;18.57;;;;;;;12.78;100.00;95461.16;10160012;29;20050;-70
2021/09/29 18:31:19;;;;;;;23.50;15.25;;;;;;;12.77;100.00;95473.84;10211139;29;20366;-73
2021/09/29 18:36:23;;;;;;;25.13;15.70;;;;;;;12.74;100.00;95468.19;10210942;29;20046;-72
2021/09/29 18:41:25;;;;;;;26.38;15.63;;;;;;;12.71;100.00;95471.41;10198273;29;20126;-69
2021/09/29 18:46:26;;;;;;;29.17;15.90;;;;;;;12.73;100.00;95474.66;10201925;29;20032;-73
2021/09/29 18:51:27;;;;;;;31.48;16.73;;;;;;;12.69;100.00;95477.09;10203366;29;20513;-68
2021/09/29 19:07:17;;;;;;;34.70;17.98;;;;;;;12.60;100.00;95471.41;10191633;29;20032;-67
2021/09/29 19:12:18;;;;;;;29.45;15.98;;;;;;;12.53;100.00;95483.53;10201012;28;20040;-71
2021/09/29 19:17:18;;;;;;;27.58;15.50;;;;;;;12.59;100.00;95482.47;10200222;29;20043;-73
2021/09/29 19:22:19;;;;;;;26.92;15.43;;;;;;;12.65;100.00;95476.78;10200609;29;20556;-68
2021/09/29 19:27:21;;;;;;;31.88;15.80;;;;;;;12.61;100.00;95485.69;10216599;28;20035;-70
2021/09/29 19:32:21;;;;;;;30.38;15.80;;;;;;;12.56;100.00;95485.69;10161495;29;20028;-66
2021/09/29 19:37:22;;;;;;;25.17;14.10;;;;;;;12.61;100.00;95478.44;10178244;29;20027;-68
2021/09/29 19:42:22;;;;;;;22.60;12.67;;;;;;;12.20;100.00;95474.84;10198695;29;20046;-73
2021/09/29 19:47:49;;;;;;;20.08;12.27;;;;;;;12.20;100.00;95481.03;10200617;29;20354;-70
2021/09/29 20:08:25;;;;;;;15.50;9.45;;;;;;;11.72;100.00;95491.03;10200097;29;20048;-73
2021/09/29 20:13:27;;;;;;;14.10;9.17;;;;;;;11.58;100.00;95487.97;10215469;28;20041;-72
2021/09/29 20:18:29;;;;;;;18.20;9.00;;;;;;;11.52;100.00;95492.53;10173554;29;20375;-68
2021/09/29 20:23:30;;;;;;;16.73;9.32;;;;;;;11.52;100.00;95506.00;10168721;29;20123;-68
2021/09/29 20:28:33;;;;;;;19.75;10.00;;;;;;;11.52;100.00;95507.88;10196940;29;20142;-73
2021/09/29 20:44:02;;;;;;;19.65;12.18;;;;;;;11.64;100.00;95513.88;10199349;29;20110;-74
2021/09/29 20:49:06;;;;;;;20.02;12.65;;;;;;;11.60;100.00;95515.47;10197039;29;20057;-68
2021/09/29 20:54:07;;;;;;;19.70;11.02;;;;;;;11.74;100.00;95521.22;10198772;29;20077;-68
2021/09/29 20:59:07;;;;;;;23.30;11.02;;;;;;;11.76;100.00;95511.81;10213594;29;20139;-69
2021/09/29 21:04:08;;;;;;;20.77;11.63;;;;;;;11.88;100.00;95513.47;10196452;29;20027;-68
2021/09/29 21:09:14;;;;;;;19.15;10.50;;;;;;;11.89;100.00;95513.19;10197198;29;20020;-69
2021/09/29 21:14:19;;;;;;;20.50;11.55;;;;;;;11.67;100.00;95518.75;10196135;29;20024;-72
2021/09/29 21:19:20;;;;;;;30.70;11.63;;;;;;;11.62;100.00;95524.09;10193604;29;20053;-73
2021/09/29 21:24:22;;;;;;;18.70;11.27;;;;;;;11.65;100.00;95528.94;10192710;29;20073;-68
2021/09/29 21:29:22;;;;;;;19.88;11.35;;;;;;;11.67;100.00;95526.81;10192991;29;20279;-73
2021/09/29 21:34:23;;;;;;;17.38;10.55;;;;;;;11.75;100.00;95526.31;10197253;29;20032;-70
2021/09/29 21:39:55;;;;;;;20.88;11.30;;;;;;;11.78;100.00;95522.31;10195903;29;20070;-73
2021/09/29 22:17:07;;;;;;;16.88;10.95;;;;;;;12.06;100.00;95493.38;10200414;29;20047;-69
2021/09/29 22:32:47;;;;;;;20.48;10.93;;;;;;;12.06;100.00;95486.09;10204740;29;20090;-66
2021/09/29 23:04:24;;;;;;;17.48;9.55;;;;;;;12.39;100.00;95475.97;10203245;29;20418;-71
2021/09/29 23:09:38;;;;;;;11.13;7.47;;;;;;;12.45;100.00;95460.59;10201552;29;20027;-72
2021/09/29 23:35:38;;;;;;;18.23;7.72;;;;;;;12.11;100.00;95459.19;10202300;29;20445;-72
2021/09/29 23:40:44;;;;;;;16.30;7.65;;;;;;;12.17;100.00;95460.00;10216595;28;20027;-74
2021/09/29 23:45:44;;;;;;;11.30;7.97;;;;;;;12.19;100.00;95462.44;10200162;28;20471;-67
2021/09/29 23:50:45;;;;;;;12.80;8.30;;;;;;;12.14;100.00;95464.03;10201242;29;20032;-76
2021/09/29 23:55:45;;;;;;;9.98;7.65;;;;;;;12.23;100.00;95460.81;10200400;29;20024;-69
